Time;durP1;ratioP1;P1;durP2;ratioP2;P2;SDS_P1;SDS_P2;PMS_P1;PMS_P2;Temp;Humidity;BMP_temperature;BMP_pressure;BME280_temperature;BME280_humidity;BME280_pressure;Samples;Min_cycle;Max_cycle;Signal;HPM_P1;HPM_P2
2022/10/15 00:02:53;;;;;;;49.85;22.48;;;14.30;88.00;;;;;;9178318;19;20006;-64
2022/10/15 00:05:56;;;;;;;41.90;21.30;;;14.30;88.00;;;;;;9180407;19;20022;-65
2022/10/15 00:09:00;;;;;;;41.22;21.02;;;14.20;87.90;;;;;;9182033;19;20014;-63
2022/10/15 00:12:04;;;;;;;37.00;19.90;;;14.20;87.90;;;;;;9182098;19;20045;-66
2022/10/15 00:15:09;;;;;;;40.58;21.60;;;14.20;88.00;;;;;;9182257;19;20035;-65
2022/10/15 00:18:15;;;;;;;39.47;20.38;;;14.20;87.90;;;;;;9181685;19;20018;-66
2022/10/15 00:21:20;;;;;;;40.88;20.20;;;14.20;88.00;;;;;;9174880;19;20476;-62
2022/10/15 00:24:24;;;;;;;45.00;21.30;;;14.10;87.90;;;;;;9181390;19;20090;-64
2022/10/15 00:27:27;;;;;;;39.25;20.05;;;14.20;88.00;;;;;;9180317;19;20018;-65
2022/10/15 00:30:31;;;;;;;;;;;14.10;87.90;;;;;;9179717;19;20019;-66
2022/10/15 00:33:37;;;;;;;37.72;20.55;;;14.10;87.90;;;;;;9180505;19;19919;-65
2022/10/15 00:36:41;;;;;;;37.72;19.95;;;14.10;87.80;;;;;;9178540;19;20018;-65
2022/10/15 00:39:45;;;;;;;38.33;20.13;;;14.10;87.80;;;;;;9179252;19;20786;-66
2022/10/15 00:42:48;;;;;;;36.10;19.50;;;14.00;87.90;;;;;;9173832;19;20014;-65
2022/10/15 00:45:52;;;;;;;34.38;18.75;;;14.00;87.80;;;;;;9179312;19;20657;-64
2022/10/15 00:49:03;;;;;;;38.03;19.92;;;14.00;87.90;;;;;;9178250;19;20047;-66
2022/10/15 00:52:35;;;;;;;34.70;19.08;;;14.00;87.80;;;;;;9179994;19;20019;-65
2022/10/15 00:55:42;;;;;;;33.60;18.85;;;13.90;87.80;;;;;;9179097;19;20018;-65
2022/10/15 00:58:47;;;;;;;34.80;18.90;;;13.90;87.80;;;;;;9178499;19;20029;-63
2022/10/15 01:01:51;;;;;;;30.17;17.45;;;13.90;87.80;;;;;;9178607;19;20454;-63
2022/10/15 01:04:56;;;;;;;;;;;13.80;87.70;;;;;;9177368;19;20026;-64
2022/10/15 01:08:00;;;;;;;29.65;16.75;;;13.80;87.80;;;;;;9180023;19;19970;-64
2022/10/15 01:11:17;;;;;;;37.45;18.80;;;13.70;87.60;;;;;;9179870;19;20022;-65
2022/10/15 01:14:35;;;;;;;33.20;18.83;;;13.70;87.70;;;;;;9175808;19;20352;-64
2022/10/15 01:17:46;;;;;;;32.75;17.23;;;13.60;87.70;;;;;;9177835;19;20044;-64
2022/10/15 01:21:09;;;;;;;34.10;17.55;;;13.60;87.80;;;;;;9175827;19;20023;-64
2022/10/15 01:24:43;;;;;;;32.80;18.02;;;13.60;87.80;;;;;;9180685;19;20018;-63
2022/10/15 01:27:54;;;;;;;31.52;17.38;;;13.50;87.70;;;;;;9177358;19;20393;-62
2022/10/15 01:31:03;;;;;;;33.65;17.35;;;13.50;87.70;;;;;;9179391;19;20018;-64
2022/10/15 01:34:14;;;;;;;29.88;17.15;;;13.50;87.80;;;;;;9174780;19;20970;-65
2022/10/15 01:37:27;;;;;;;31.88;16.77;;;13.40;87.70;;;;;;9177088;19;20018;-64
2022/10/15 01:40:37;;;;;;;29.67;17.33;;;13.40;87.70;;;;;;9177423;19;20011;-67
2022/10/15 01:43:49;;;;;;;29.83;16.42;;;13.30;87.70;;;;;;9173754;19;20015;-66
2022/10/15 01:47:09;;;;;;;29.88;16.52;;;13.30;87.70;;;;;;9177455;19;20656;-64
2022/10/15 01:50:15;;;;;;;29.70;16.67;;;13.30;87.70;;;;;;9176887;19;20337;-65
2022/10/15 01:53:25;;;;;;;31.38;17.83;;;13.20;87.60;;;;;;9177716;19;20117;-67
2022/10/15 01:56:30;;;;;;;31.05;17.50;;;13.20;87.70;;;;;;9177727;19;20019;-66
2022/10/15 01:59:35;;;;;;;33.03;17.73;;;13.20;87.70;;;;;;9177153;19;20022;-66
2022/10/15 02:02:42;;;;;;;37.00;17.65;;;13.10;88.30;;;;;;9175798;19;20019;-64
2022/10/15 02:05:51;;;;;;;33.65;18.17;;;13.10;87.80;;;;;;9175969;19;20396;-66
2022/10/15 02:09:04;;;;;;;28.73;17.77;;;13.10;88.00;;;;;;9175971;19;20082;-65
2022/10/15 02:12:18;;;;;;;34.50;16.90;;;13.00;87.90;;;;;;9177688;19;20407;-66
2022/10/15 02:15:24;;;;;;;;;;;13.00;87.90;;;;;;9176872;19;20010;-64
2022/10/15 02:18:39;;;;;;;29.98;16.60;;;13.00;87.90;;;;;;9177358;19;19918;-64
2022/10/15 02:21:47;;;;;;;42.72;16.38;;;13.00;87.90;;;;;;9169817;19;20374;-66
2022/10/15 02:24:56;;;;;;;31.25;17.65;;;12.90;87.90;;;;;;9174351;19;20019;-62
2022/10/15 02:28:01;;;;;;;31.40;18.48;;;12.90;87.90;;;;;;9174506;19;20010;-64
2022/10/15 02:31:06;;;;;;;34.33;18.42;;;12.90;88.00;;;;;;9178495;19;20023;-65
2022/10/15 02:34:18;;;;;;;35.67;18.27;;;12.90;88.10;;;;;;9175071;19;20093;-65
2022/10/15 02:37:25;;;;;;;34.05;18.60;;;12.90;88.10;;;;;;9174758;19;20022;-65
2022/10/15 02:40:33;;;;;;;33.80;18.83;;;13.00;88.20;;;;;;9174940;19;20021;-64
2022/10/15 02:43:40;;;;;;;33.85;18.35;;;12.90;88.20;;;;;;9174083;19;20018;-65
2022/10/15 02:46:44;;;;;;;32.88;17.80;;;12.90;88.10;;;;;;9177218;19;20085;-64
2022/10/15 02:49:52;;;;;;;37.08;19.27;;;12.90;88.20;;;;;;9174764;19;20025;-65
2022/10/15 02:52:56;;;;;;;37.20;18.55;;;12.90;88.20;;;;;;9174510;19;20048;-63
2022/10/15 02:56:00;;;;;;;37.95;19.83;;;13.00;88.30;;;;;;9175638;19;20086;-65
2022/10/15 02:59:04;;;;;;;37.92;18.85;;;12.90;88.30;;;;;;9174872;19;20007;-65
2022/10/15 03:02:08;;;;;;;37.45;18.80;;;12.90;88.30;;;;;;9174936;19;20011;-66
2022/10/15 03:05:14;;;;;;;;;;;12.90;88.30;;;;;;9173726;19;20039;-64
2022/10/15 03:08:19;;;;;;;35.58;18.50;;;12.90;88.20;;;;;;9174042;19;19926;-65
2022/10/15 03:11:22;;;;;;;36.03;18.40;;;12.90;88.10;;;;;;9173298;19;20022;-65
2022/10/15 03:14:26;;;;;;;35.33;17.40;;;12.90;88.10;;;;;;9173370;19;20038;-64
2022/10/15 03:17:30;;;;;;;31.65;16.95;;;12.90;88.20;;;;;;9175317;19;20042;-64
2022/10/15 03:20:36;;;;;;;35.53;17.27;;;12.90;88.20;;;;;;9170399;19;20475;-63
2022/10/15 03:23:40;;;;;;;32.95;17.25;;;12.90;88.20;;;;;;9171843;19;20015;-65
2022/10/15 03:26:51;;;;;;;34.05;16.45;;;12.90;88.20;;;;;;9169528;19;20026;-65
2022/10/15 03:29:55;;;;;;;29.58;17.75;;;12.80;88.10;;;;;;9174233;19;20023;-65
2022/10/15 03:33:01;;;;;;;30.83;17.95;;;12.80;88.20;;;;;;9173167;19;20015;-65
2022/10/15 03:36:09;;;;;;;34.28;17.60;;;12.80;88.20;;;;;;9172014;19;20044;-65
2022/10/15 03:39:13;;;;;;;32.17;16.65;;;12.80;88.30;;;;;;9179578;19;20021;-65
2022/10/15 03:42:17;;;;;;;26.40;16.27;;;12.70;88.20;;;;;;9180348;19;20074;-63
2022/10/15 03:45:21;;;;;;;28.15;16.42;;;12.70;88.30;;;;;;9181630;19;20478;-64
2022/10/15 03:48:31;;;;;;;31.58;16.67;;;12.70;88.30;;;;;;9181401;19;20006;-64
2022/10/15 03:51:37;;;;;;;31.63;16.35;;;12.70;88.30;;;;;;9180991;19;20022;-64
2022/10/15 03:54:46;;;;;;;29.00;16.73;;;12.70;88.30;;;;;;9181146;19;20017;-65
2022/10/15 03:57:53;;;;;;;29.88;16.02;;;12.70;88.30;;;;;;9181114;19;20590;-63
2022/10/15 04:00:56;;;;;;;;;;;12.70;88.40;;;;;;9181591;19;20014;-64
2022/10/15 04:04:00;;;;;;;31.85;16.20;;;12.70;88.30;;;;;;9179835;19;19955;-63
2022/10/15 04:07:06;;;;;;;30.83;16.92;;;12.70;88.20;;;;;;9181673;19;20579;-63
2022/10/15 04:10:10;;;;;;;32.15;17.13;;;12.70;88.30;;;;;;9180415;19;20543;-62
2022/10/15 04:13:16;;;;;;;28.88;16.92;;;12.70;88.30;;;;;;9180242;19;20018;-65
2022/10/15 04:16:20;;;;;;;35.25;17.92;;;12.70;88.40;;;;;;9181017;19;20018;-64
2022/10/15 04:19:24;;;;;;;35.60;15.95;;;12.70;88.40;;;;;;9179652;19;20019;-64
2022/10/15 04:22:38;;;;;;;30.83;16.23;;;12.70;88.40;;;;;;9172080;19;20029;-64
2022/10/15 04:25:44;;;;;;;28.75;16.20;;;12.70;88.40;;;;;;9179826;19;20010;-65
2022/10/15 04:28:49;;;;;;;29.65;17.38;;;12.70;88.40;;;;;;9181784;19;20023;-66
2022/10/15 04:31:54;;;;;;;29.55;16.17;;;12.70;88.50;;;;;;9179434;19;20019;-65
2022/10/15 04:34:57;;;;;;;;;;;12.70;88.40;;;;;;9180872;19;20014;-66
2022/10/15 04:38:21;;;;;;;32.78;18.00;;;12.70;89.00;;;;;;9179203;19;20336;-64
2022/10/15 04:41:35;;;;;;;45.15;17.48;;;12.70;88.20;;;;;;9179077;19;20037;-64
2022/10/15 04:44:42;;;;;;;30.15;15.98;;;12.70;88.30;;;;;;9179682;19;20026;-62
2022/10/15 04:47:46;;;;;;;28.25;16.15;;;12.70;88.30;;;;;;9178189;19;20014;-65
2022/10/15 04:50:52;;;;;;;26.95;15.73;;;12.70;88.30;;;;;;9179018;19;20018;-65
2022/10/15 04:54:00;;;;;;;32.35;16.25;;;12.70;88.30;;;;;;9178683;19;20010;-64
2022/10/15 04:57:06;;;;;;;29.77;16.50;;;12.70;88.30;;;;;;9177525;19;20026;-63
2022/10/15 05:00:10;;;;;;;;;;;12.70;88.30;;;;;;9174343;19;20018;-66
2022/10/15 05:03:47;;;;;;;32.08;16.40;;;12.70;88.30;;;;;;9167220;19;19934;-67
2022/10/15 05:06:51;;;;;;;34.28;17.23;;;12.60;88.10;;;;;;9169780;19;20022;-64
2022/10/15 05:09:58;;;;;;;33.65;17.00;;;12.60;88.10;;;;;;9170579;19;20073;-66
2022/10/15 05:13:03;;;;;;;32.90;17.83;;;12.60;88.30;;;;;;9173854;19;20025;-65
2022/10/15 05:16:11;;;;;;;34.50;18.42;;;12.60;88.30;;;;;;9169888;19;20026;-65
2022/10/15 05:19:15;;;;;;;35.28;18.00;;;12.60;88.30;;;;;;9168291;19;20021;-63
2022/10/15 05:22:19;;;;;;;38.08;18.17;;;12.60;88.40;;;;;;9168858;19;20011;-63
2022/10/15 05:25:30;;;;;;;43.53;21.48;;;12.50;88.40;;;;;;9169731;19;20014;-64
2022/10/15 05:28:34;;;;;;;40.17;21.30;;;12.60;88.50;;;;;;9177653;19;20047;-64
2022/10/15 05:31:38;;;;;;;37.80;19.90;;;12.60;88.50;;;;;;9178287;19;20018;-65
2022/10/15 05:34:50;;;;;;;38.42;20.70;;;12.60;88.60;;;;;;9177612;19;20026;-65
2022/10/15 05:37:54;;;;;;;41.42;20.23;;;12.60;88.60;;;;;;9177432;19;20483;-64
2022/10/15 05:41:01;;;;;;;37.78;19.90;;;12.60;88.60;;;;;;9177569;19;20082;-64
2022/10/15 05:44:05;;;;;;;43.30;20.38;;;12.60;88.60;;;;;;9174355;19;20363;-64
2022/10/15 05:47:10;;;;;;;;;;;12.60;88.70;;;;;;9180508;19;20591;-63
2022/10/15 05:50:15;;;;;;;33.08;18.48;;;12.60;88.60;;;;;;9177131;19;20352;-65
2022/10/15 05:53:22;;;;;;;45.97;22.50;;;12.60;88.50;;;;;;9177860;19;20022;-64
2022/10/15 05:56:31;;;;;;;49.45;21.88;;;12.60;88.60;;;;;;9178083;19;20014;-65
2022/10/15 05:59:35;;;;;;;36.70;19.95;;;12.60;88.60;;;;;;9176873;19;20094;-64
2022/10/15 06:02:38;;;;;;;39.47;20.92;;;12.70;88.70;;;;;;9175785;19;20018;-65
2022/10/15 06:05:42;;;;;;;48.30;22.15;;;12.70;88.70;;;;;;9176304;19;20003;-63
2022/10/15 06:08:46;;;;;;;41.90;21.15;;;12.70;88.70;;;;;;9178033;19;20056;-64
2022/10/15 06:11:51;;;;;;;43.33;22.85;;;12.70;88.70;;;;;;9178978;19;20011;-66
2022/10/15 06:15:00;;;;;;;41.97;22.10;;;12.70;88.80;;;;;;9174452;19;20385;-64
2022/10/15 06:18:04;;;;;;;41.28;22.05;;;12.70;88.80;;;;;;9177320;19;20535;-64
2022/10/15 06:21:08;;;;;;;46.15;22.65;;;12.70;88.80;;;;;;9171491;19;20895;-65
2022/10/15 06:24:12;;;;;;;41.70;21.45;;;12.70;88.80;;;;;;9174322;19;20518;-65
2022/10/15 06:27:18;;;;;;;41.38;20.95;;;12.80;89.50;;;;;;9178346;19;20048;-65
2022/10/15 06:30:21;;;;;;;41.75;21.35;;;12.80;88.90;;;;;;9177813;19;20014;-63
2022/10/15 06:33:25;;;;;;;43.15;23.02;;;12.80;88.90;;;;;;9177211;19;20015;-64
2022/10/15 06:36:29;;;;;;;47.55;24.42;;;12.80;88.90;;;;;;9176832;19;20010;-64
2022/10/15 06:39:33;;;;;;;42.72;23.15;;;12.80;88.90;;;;;;9175753;19;20018;-66
2022/10/15 06:42:38;;;;;;;43.25;21.92;;;12.80;88.90;;;;;;9175762;19;20066;-65
2022/10/15 06:45:43;;;;;;;48.40;22.80;;;12.80;88.90;;;;;;9176412;19;20019;-66
2022/10/15 06:48:54;;;;;;;39.65;21.08;;;12.90;89.00;;;;;;9174584;19;20011;-65
2022/10/15 06:51:59;;;;;;;41.35;21.85;;;12.90;89.00;;;;;;9176197;19;20010;-65
2022/10/15 06:55:08;;;;;;;42.15;21.67;;;12.90;89.10;;;;;;9175722;19;20026;-64
2022/10/15 06:58:13;;;;;;;47.55;22.00;;;12.90;89.10;;;;;;9173624;19;20014;-64
2022/10/15 07:01:17;;;;;;;40.05;20.45;;;12.90;89.10;;;;;;9175165;19;20019;-65
2022/10/15 07:04:20;;;;;;;43.88;22.58;;;13.00;89.10;;;;;;9171706;19;20448;-65
2022/10/15 07:07:24;;;;;;;43.85;22.30;;;;;;;;;;9175584;19;20535;-67
2022/10/15 07:10:29;;;;;;;50.10;23.33;;;13.00;88.70;;;;;;9173493;19;20011;-65
2022/10/15 07:13:34;;;;;;;48.88;24.25;;;13.00;89.20;;;;;;9183363;19;20090;-64
2022/10/15 07:16:39;;;;;;;43.15;23.20;;;13.00;89.20;;;;;;9183439;19;20044;-64
2022/10/15 07:19:43;;;;;;;48.67;25.33;;;13.10;89.30;;;;;;9184187;19;20169;-63
2022/10/15 07:22:47;;;;;;;55.38;26.83;;;13.10;89.30;;;;;;9178415;19;20350;-65
2022/10/15 07:25:51;;;;;;;52.17;25.73;;;13.10;89.30;;;;;;9183914;19;20363;-64
2022/10/15 07:28:56;;;;;;;56.67;28.13;;;13.10;89.30;;;;;;9183148;19;20543;-65
2022/10/15 07:32:00;;;;;;;62.28;28.13;;;13.20;89.40;;;;;;9182990;19;20031;-64
2022/10/15 07:35:04;;;;;;;65.25;28.92;;;13.20;89.40;;;;;;9181853;19;20077;-65
2022/10/15 07:38:08;;;;;;;65.20;29.70;;;13.20;89.40;;;;;;9183197;19;20032;-63
2022/10/15 07:41:11;;;;;;;73.63;30.30;;;13.30;89.50;;;;;;9182989;19;20411;-63
2022/10/15 07:44:20;;;;;;;73.68;33.03;;;13.30;89.50;;;;;;9178812;19;20422;-63
2022/10/15 07:47:24;;;;;;;72.20;32.15;;;13.40;89.60;;;;;;9183131;19;20014;-65
2022/10/15 07:50:28;;;;;;;72.70;30.17;;;13.40;89.70;;;;;;9182592;19;20531;-64
2022/10/15 07:53:39;;;;;;;73.65;32.38;;;13.40;89.60;;;;;;9182698;19;20030;-64
2022/10/15 07:56:43;;;;;;;87.32;36.38;;;13.50;89.70;;;;;;9182177;19;20015;-64
2022/10/15 07:59:48;;;;;;;82.78;33.50;;;13.50;89.70;;;;;;9182045;19;20048;-63
2022/10/15 08:02:52;;;;;;;80.72;36.13;;;13.60;89.70;;;;;;9177157;19;20022;-63
2022/10/15 08:05:56;;;;;;;84.32;36.45;;;13.60;89.80;;;;;;9175955;19;20022;-63
2022/10/15 08:09:00;;;;;;;;;;;13.60;89.70;;;;;;9182958;19;20369;-63
2022/10/15 08:12:06;;;;;;;87.88;35.85;;;13.70;89.70;;;;;;9181287;19;19921;-64
2022/10/15 08:15:12;;;;;;;82.65;34.97;;;13.70;89.60;;;;;;9180112;19;20025;-64
2022/10/15 08:18:16;;;;;;;82.10;35.40;;;13.70;89.60;;;;;;9179793;19;20360;-64
2022/10/15 08:21:19;;;;;;;75.35;34.00;;;13.70;89.70;;;;;;9176897;19;20019;-65
2022/10/15 08:24:23;;;;;;;83.40;35.60;;;13.80;89.80;;;;;;9177299;19;20025;-65
2022/10/15 08:27:27;;;;;;;76.65;33.10;;;13.80;89.80;;;;;;9180798;19;20048;-64
2022/10/15 08:30:35;;;;;;;73.68;33.80;;;13.80;89.80;;;;;;9180267;19;20022;-64
2022/10/15 08:33:45;;;;;;;69.68;33.67;;;13.90;89.90;;;;;;9180731;19;20022;-66
2022/10/15 08:36:48;;;;;;;63.28;31.02;;;13.90;89.90;;;;;;9180547;19;20021;-63
2022/10/15 08:39:52;;;;;;;64.20;29.73;;;13.90;89.90;;;;;;9179137;19;20017;-65
2022/10/15 08:42:58;;;;;;;67.63;30.75;;;13.90;89.90;;;;;;9177998;19;20070;-65
2022/10/15 08:46:10;;;;;;;58.45;29.65;;;14.00;89.90;;;;;;9178060;19;20023;-64
2022/10/15 08:49:24;;;;;;;56.50;26.92;;;14.00;90.00;;;;;;9181098;19;20017;-64
2022/10/15 08:52:39;;;;;;;53.90;26.90;;;14.00;90.00;;;;;;9180615;19;20018;-66
2022/10/15 08:55:46;;;;;;;47.97;25.35;;;14.00;89.90;;;;;;9178662;19;20575;-66
2022/10/15 08:58:58;;;;;;;51.03;25.15;;;14.00;90.00;;;;;;9178622;19;20091;-64
2022/10/15 09:02:09;;;;;;;45.33;23.60;;;14.10;90.00;;;;;;9177491;19;20015;-66
2022/10/15 09:05:32;;;;;;;48.50;23.73;;;14.10;90.00;;;;;;9176529;19;20349;-63
2022/10/15 09:08:45;;;;;;;47.55;23.65;;;14.10;90.00;;;;;;9176763;19;20010;-63
2022/10/15 09:11:57;;;;;;;45.90;23.10;;;14.10;90.00;;;;;;9177203;19;20077;-63
2022/10/15 09:15:03;;;;;;;46.35;23.95;;;14.10;90.00;;;;;;9179975;19;20403;-65
2022/10/15 09:18:17;;;;;;;50.47;25.48;;;14.20;90.00;;;;;;9178968;19;20018;-64
2022/10/15 09:21:22;;;;;;;;;;;14.20;90.10;;;;;;9175797;19;20430;-63
2022/10/15 09:24:30;;;;;;;45.67;21.55;;;14.30;90.30;;;;;;9174325;19;19918;-65
2022/10/15 09:27:36;;;;;;;52.22;24.05;;;14.30;90.00;;;;;;9180520;19;20014;-65
2022/10/15 09:30:47;;;;;;;49.63;23.73;;;14.30;90.00;;;;;;9179517;19;20126;-66
2022/10/15 09:33:58;;;;;;;57.85;27.30;;;14.30;90.00;;;;;;9179269;19;20027;-64
2022/10/15 09:37:08;;;;;;;51.67;23.65;;;14.40;90.10;;;;;;9176935;19;20066;-63
2022/10/15 09:40:28;;;;;;;54.45;25.30;;;14.40;90.10;;;;;;9177253;19;20026;-63
2022/10/15 09:43:35;;;;;;;51.47;24.73;;;14.50;90.10;;;;;;9177258;19;20027;-63
2022/10/15 09:46:45;;;;;;;49.08;23.38;;;14.50;90.10;;;;;;9177661;19;20027;-63
2022/10/15 09:49:51;;;;;;;49.05;23.90;;;14.50;90.10;;;;;;9178662;19;20022;-64
2022/10/15 09:53:05;;;;;;;54.83;23.73;;;14.60;90.10;;;;;;9178674;19;20535;-64
2022/10/15 09:56:12;;;;;;;;;;;14.60;90.20;;;;;;9179556;19;20018;-65
2022/10/15 09:59:17;;;;;;;48.85;21.90;;;14.60;90.10;;;;;;9176594;19;19922;-65
2022/10/15 10:02:22;;;;;;;47.33;22.45;;;14.70;90.10;;;;;;9177287;19;20015;-65
2022/10/15 10:05:32;;;;;;;47.22;22.15;;;14.70;90.10;;;;;;9174408;19;20010;-66
2022/10/15 10:08:39;;;;;;;55.15;23.23;;;14.80;90.20;;;;;;9178114;19;20085;-65
2022/10/15 10:11:49;;;;;;;50.88;24.38;;;14.90;90.20;;;;;;9178271;19;20015;-66
2022/10/15 10:14:57;;;;;;;51.63;22.45;;;14.90;90.20;;;;;;9177905;19;20022;-66
2022/10/15 10:18:00;;;;;;;45.45;22.05;;;15.00;90.20;;;;;;9177247;19;20010;-64
2022/10/15 10:21:21;;;;;;;48.63;22.20;;;15.10;90.30;;;;;;9172784;19;20491;-64
2022/10/15 10:24:30;;;;;;;45.10;21.20;;;15.10;90.30;;;;;;9174958;19;20020;-67
2022/10/15 10:27:34;;;;;;;47.20;20.15;;;15.20;90.30;;;;;;9173586;19;20104;-63
2022/10/15 10:30:43;;;;;;;39.65;19.70;;;15.30;90.20;;;;;;9174805;19;20014;-66
2022/10/15 10:33:48;;;;;;;41.45;18.70;;;15.30;90.20;;;;;;9174406;19;20042;-65
2022/10/15 10:36:54;;;;;;;36.22;18.23;;;15.40;90.20;;;;;;9175020;19;20031;-66
2022/10/15 10:40:01;;;;;;;35.00;18.73;;;15.50;90.20;;;;;;9174070;19;20015;-63
2022/10/15 10:43:13;;;;;;;41.53;18.67;;;15.50;90.10;;;;;;9174750;19;20006;-65
2022/10/15 10:46:21;;;;;;;37.90;19.27;;;15.50;90.20;;;;;;9173893;19;20014;-65
2022/10/15 10:49:32;;;;;;;36.63;18.50;;;15.60;90.20;;;;;;9183188;19;20027;-65
2022/10/15 10:52:39;;;;;;;33.45;18.05;;;15.70;90.20;;;;;;9185550;19;20035;-65
2022/10/15 10:55:47;;;;;;;33.72;17.10;;;15.80;90.20;;;;;;9182549;19;20749;-64
2022/10/15 10:58:57;;;;;;;35.63;16.75;;;15.80;90.20;;;;;;9181397;19;20022;-65
2022/10/15 11:02:02;;;;;;;27.85;15.80;;;15.90;90.10;;;;;;9182609;19;20029;-63
2022/10/15 11:05:07;;;;;;;28.20;16.38;;;16.00;90.10;;;;;;9179745;19;20017;-62
2022/10/15 11:08:25;;;;;;;28.55;16.23;;;16.10;90.10;;;;;;9183519;19;20366;-61
2022/10/15 11:11:38;;;;;;;30.63;15.70;;;16.10;90.00;;;;;;9183159;19;20074;-66
2022/10/15 11:14:49;;;;;;;31.83;15.88;;;16.20;90.00;;;;;;9183920;19;20078;-64
2022/10/15 11:18:03;;;;;;;31.02;15.50;;;16.20;89.90;;;;;;9180868;19;20015;-65
2022/10/15 11:21:16;;;;;;;31.40;15.65;;;16.20;89.80;;;;;;9179024;19;20022;-65
2022/10/15 11:24:34;;;;;;;32.25;16.15;;;16.20;89.70;;;;;;9181025;19;20090;-65
2022/10/15 11:28:07;;;;;;;27.55;15.30;;;16.20;89.70;;;;;;9181152;19;20033;-63
2022/10/15 11:31:18;;;;;;;28.17;14.77;;;16.30;89.80;;;;;;9183669;19;20010;-63
2022/10/15 11:34:33;;;;;;;29.27;15.98;;;16.30;89.80;;;;;;9183609;19;20577;-64
2022/10/15 11:37:42;;;;;;;33.33;15.85;;;16.30;89.80;;;;;;9183013;19;20021;-63
2022/10/15 11:41:02;;;;;;;24.48;15.55;;;16.30;89.70;;;;;;9183761;19;20018;-65
2022/10/15 11:44:23;;;;;;;25.27;13.55;;;16.30;89.70;;;;;;9173301;19;20033;-65
2022/10/15 11:47:39;;;;;;;23.02;13.50;;;16.30;89.80;;;;;;9176946;19;20535;-64
2022/10/15 11:50:49;;;;;;;22.63;13.32;;;16.40;89.90;;;;;;9173144;19;20094;-65
2022/10/15 11:54:20;;;;;;;26.75;14.30;;;16.40;89.90;;;;;;9172573;19;20021;-65
2022/10/15 11:57:28;;;;;;;28.05;14.13;;;16.40;90.00;;;;;;9166726;19;20014;-64
2022/10/15 12:00:35;;;;;;;22.90;12.85;;;16.40;89.90;;;;;;9179344;19;20380;-65
2022/10/15 12:03:45;;;;;;;19.35;11.88;;;16.40;90.00;;;;;;9179147;19;20010;-67
2022/10/15 12:06:50;;;;;;;19.83;12.10;;;;;;;;;;9176543;19;20014;-65
2022/10/15 12:09:58;;;;;;;22.15;13.10;;;16.40;89.60;;;;;;9178831;19;20029;-65
2022/10/15 12:13:09;;;;;;;19.30;12.27;;;16.40;90.00;;;;;;9182057;19;20006;-65
2022/10/15 12:16:23;;;;;;;21.77;13.10;;;16.40;90.00;;;;;;9181709;19;20689;-66
2022/10/15 12:19:30;;;;;;;21.45;13.43;;;16.40;90.00;;;;;;9180230;19;20090;-65
2022/10/15 12:22:40;;;;;;;20.10;12.95;;;16.40;90.00;;;;;;9176756;19;20017;-63
2022/10/15 12:25:46;;;;;;;15.95;10.63;;;16.50;90.10;;;;;;9178665;19;20018;-65
2022/10/15 12:28:53;;;;;;;15.65;10.15;;;16.40;90.30;;;;;;9174246;19;20022;-64
2022/10/15 12:31:57;;;;;;;15.30;10.88;;;16.50;90.10;;;;;;9174475;19;20023;-65
2022/10/15 12:35:05;;;;;;;17.63;10.93;;;16.50;90.10;;;;;;9180741;19;20015;-65
2022/10/15 12:38:22;;;;;;;12.48;9.00;;;16.50;90.10;;;;;;9180385;19;20049;-65
2022/10/15 12:41:38;;;;;;;10.05;7.55;;;16.50;90.10;;;;;;9181683;19;20018;-65
2022/10/15 12:44:49;;;;;;;14.98;7.82;;;16.50;90.10;;;;;;9177548;19;20021;-63
2022/10/15 12:47:56;;;;;;;12.48;7.72;;;16.50;90.10;;;;;;9181044;19;20014;-66
2022/10/15 12:51:38;;;;;;;9.32;7.22;;;16.50;90.20;;;;;;9179364;19;20015;-64
2022/10/15 12:54:43;;;;;;;7.95;6.47;;;16.50;90.20;;;;;;9181247;19;20498;-65
2022/10/15 12:57:56;;;;;;;12.15;7.53;;;16.50;90.10;;;;;;9180998;19;20014;-64
2022/10/15 13:01:07;;;;;;;8.23;6.43;;;16.50;90.20;;;;;;9179358;19;20018;-65
2022/10/15 13:04:12;;;;;;;8.50;6.60;;;16.50;90.20;;;;;;9174715;19;20033;-64
2022/10/15 13:07:16;;;;;;;11.18;7.13;;;16.50;90.20;;;;;;9173596;19;20018;-64
2022/10/15 13:10:21;;;;;;;;;;;16.50;90.20;;;;;;9173876;19;20475;-65
2022/10/15 13:13:28;;;;;;;9.27;6.25;;;16.50;90.20;;;;;;9173151;19;19923;-63
2022/10/15 13:16:34;;;;;;;10.85;5.88;;;16.50;90.10;;;;;;9174573;19;20019;-66
2022/10/15 13:19:41;;;;;;;10.57;6.00;;;16.50;90.20;;;;;;9173283;19;20464;-64
2022/10/15 13:22:47;;;;;;;10.07;6.30;;;16.60;90.30;;;;;;9169487;19;20522;-65
2022/10/15 13:25:51;;;;;;;6.60;5.57;;;16.60;90.30;;;;;;9173573;19;20025;-65
2022/10/15 13:28:58;;;;;;;7.50;5.30;;;16.60;90.30;;;;;;9174869;19;20026;-63
2022/10/15 13:32:05;;;;;;;6.30;5.18;;;16.60;90.30;;;;;;9174562;19;20024;-65
2022/10/15 13:35:12;;;;;;;6.75;4.80;;;16.60;90.30;;;;;;9172224;19;20411;-64
2022/10/15 13:38:22;;;;;;;6.35;4.82;;;16.60;90.10;;;;;;9171964;19;20024;-65
2022/10/15 13:41:28;;;;;;;6.85;5.30;;;16.70;90.40;;;;;;9171068;19;20048;-65
2022/10/15 13:44:35;;;;;;;6.82;5.15;;;16.70;90.70;;;;;;9166938;19;20019;-65
2022/10/15 13:47:43;;;;;;;7.55;5.18;;;16.70;90.40;;;;;;9171120;19;20491;-64
2022/10/15 13:50:49;;;;;;;10.20;5.03;;;16.70;90.70;;;;;;9170439;19;20024;-66
2022/10/15 13:53:53;;;;;;;6.32;4.85;;;16.70;90.40;;;;;;9169932;19;20052;-64
2022/10/15 13:56:59;;;;;;;7.85;4.85;;;16.70;90.40;;;;;;9169950;19;20070;-67
2022/10/15 14:00:04;;;;;;;8.45;4.72;;;16.80;90.50;;;;;;9167290;19;20048;-67
2022/10/15 14:03:19;;;;;;;6.90;4.55;;;16.80;90.50;;;;;;9168667;19;20657;-66
2022/10/15 14:06:25;;;;;;;4.63;4.05;;;16.80;90.50;;;;;;9166228;19;20805;-66
2022/10/15 14:09:32;;;;;;;4.80;4.22;;;16.80;90.50;;;;;;9165299;19;20467;-66
2022/10/15 14:12:36;;;;;;;4.80;3.80;;;16.90;90.50;;;;;;9166383;19;20022;-65
2022/10/15 14:15:45;;;;;;;6.68;3.95;;;16.90;90.50;;;;;;9168409;19;20082;-65
2022/10/15 14:18:53;;;;;;;5.05;3.65;;;16.90;90.50;;;;;;9169973;19;20479;-65
2022/10/15 14:21:57;;;;;;;7.90;3.47;;;16.90;90.50;;;;;;9164024;19;20053;-64
2022/10/15 14:25:08;;;;;;;6.82;3.80;;;16.90;90.50;;;;;;9166737;19;20097;-67
2022/10/15 14:28:21;;;;;;;4.53;3.35;;;17.00;90.50;;;;;;9171000;19;20018;-64
2022/10/15 14:31:32;;;;;;;4.57;3.20;;;17.00;90.60;;;;;;9166092;19;20018;-64
2022/10/15 14:34:41;;;;;;;7.32;2.97;;;17.00;90.60;;;;;;9165162;19;20019;-66
2022/10/15 14:37:45;;;;;;;4.38;3.03;;;17.00;90.50;;;;;;9165823;19;20029;-65
2022/10/15 14:40:58;;;;;;;2.97;2.40;;;17.00;90.50;;;;;;9164095;19;20099;-65
2022/10/15 14:44:06;;;;;;;3.53;3.17;;;17.10;90.60;;;;;;9163798;19;20018;-66
2022/10/15 14:47:19;;;;;;;3.67;2.95;;;17.10;90.50;;;;;;9167247;19;20018;-67
2022/10/15 14:50:28;;;;;;;5.47;2.40;;;17.10;90.60;;;;;;9167728;19;20018;-65
2022/10/15 14:53:35;;;;;;;4.90;2.25;;;17.10;90.50;;;;;;9167306;19;20356;-65
2022/10/15 14:56:41;;;;;;;4.43;2.72;;;17.10;90.50;;;;;;9164307;19;20598;-65
2022/10/15 14:59:45;;;;;;;6.90;2.70;;;17.10;90.50;;;;;;9166365;19;20014;-66
2022/10/15 15:02:48;;;;;;;;;;;17.10;90.50;;;;;;9170636;19;20647;-66
2022/10/15 15:05:56;;;;;;;3.97;3.13;;;17.10;90.50;;;;;;9165825;19;20033;-67
2022/10/15 15:09:01;;;;;;;4.45;3.08;;;17.10;90.50;;;;;;9165885;19;20048;-65
2022/10/15 15:12:04;;;;;;;4.10;3.00;;;17.10;90.50;;;;;;9166113;19;20609;-67
2022/10/15 15:15:13;;;;;;;;;;;17.10;90.50;;;;;;9167662;19;20019;-64
2022/10/15 15:18:17;;;;;;;5.63;2.88;;;17.10;90.50;;;;;;9165694;19;19990;-65
2022/10/15 15:21:24;;;;;;;4.70;3.30;;;17.10;90.50;;;;;;9162430;19;20064;-67
2022/10/15 15:24:28;;;;;;;3.80;3.20;;;17.10;90.50;;;;;;9163769;19;20022;-64
2022/10/15 15:27:36;;;;;;;4.28;3.67;;;17.10;90.50;;;;;;9165769;19;20019;-64
2022/10/15 15:30:42;;;;;;;4.70;3.28;;;17.10;90.50;;;;;;9157960;19;20015;-66
2022/10/15 15:33:46;;;;;;;4.45;3.40;;;17.10;90.50;;;;;;9164780;19;20026;-66
2022/10/15 15:36:51;;;;;;;6.53;4.15;;;17.10;90.50;;;;;;9168364;19;20118;-68
2022/10/15 15:39:55;;;;;;;5.90;3.88;;;17.10;90.50;;;;;;9174944;19;20462;-68
2022/10/15 15:42:59;;;;;;;8.77;4.60;;;17.10;90.50;;;;;;9171779;19;20025;-66
2022/10/15 15:46:03;;;;;;;5.32;4.47;;;17.10;90.50;;;;;;9171791;19;20027;-64
2022/10/15 15:49:06;;;;;;;6.72;4.25;;;17.10;90.50;;;;;;9170160;19;20022;-68
2022/10/15 15:52:17;;;;;;;8.13;4.18;;;17.10;90.50;;;;;;9171494;19;20042;-66
2022/10/15 15:55:21;;;;;;;7.35;4.57;;;17.10;90.60;;;;;;9173241;19;20118;-66
2022/10/15 15:58:25;;;;;;;7.03;4.38;;;17.10;90.50;;;;;;9170372;19;20037;-66
2022/10/15 16:01:28;;;;;;;;;;;17.10;90.50;;;;;;9172437;19;20015;-66
2022/10/15 16:04:32;;;;;;;5.97;4.43;;;17.10;90.50;;;;;;9170894;19;19951;-65